sensor_id;sensor_type;location;lat;lon;timestamp;temperature;humidity
15115;DHT22;7658;51.456;7.622;2023-12-20T00:01:05;7.20;99.90
15115;DHT22;7658;51.456;7.622;2023-12-20T00:03:31;7.20;99.90
15115;DHT22;7658;51.456;7.622;2023-12-20T00:05:57;7.20;99.90
15115;DHT22;7658;51.456;7.622;2023-12-20T00:08:23;7.10;99.90
15115;DHT22;7658;51.456;7.622;2023-12-20T00:10:49;7.10;99.90
15115;DHT22;7658;51.456;7.622;2023-12-20T00:13:14;7.10;99.90
15115;DHT22;7658;51.456;7.622;2023-12-20T00:15:40;7.10;99.90
15115;DHT22;7658;51.456;7.622;2023-12-20T00:18:06;7.00;99.90
15115;DHT22;7658;51.456;7.622;2023-12-20T00:20:32;7.00;99.90
15115;DHT22;7658;51.456;7.622;2023-12-20T00:22:58;7.00;99.90
15115;DHT22;7658;51.456;7.622;2023-12-20T00:25:24;7.00;99.90
15115;DHT22;7658;51.456;7.622;2023-12-20T00:27:50;7.00;99.90
15115;DHT22;7658;51.456;7.622;2023-12-20T00:30:16;7.00;99.90
15115;DHT22;7658;51.456;7.622;2023-12-20T00:32:42;7.00;99.90
15115;DHT22;7658;51.456;7.622;2023-12-20T00:35:14;7.00;99.90
15115;DHT22;7658;51.456;7.622;2023-12-20T00:37:40;7.00;99.90
15115;DHT22;7658;51.456;7.622;2023-12-20T00:40:06;7.00;99.90
15115;DHT22;7658;51.456;7.622;2023-12-20T00:42:32;6.90;99.90
15115;DHT22;7658;51.456;7.622;2023-12-20T00:44:59;7.00;99.90
15115;DHT22;7658;51.456;7.622;2023-12-20T00:47:25;7.00;99.90
15115;DHT22;7658;51.456;7.622;2023-12-20T00:49:51;7.00;99.90
15115;DHT22;7658;51.456;7.622;2023-12-20T00:52:17;6.90;99.90
15115;DHT22;7658;51.456;7.622;2023-12-20T00:54:43;6.90;99.90
15115;DHT22;7658;51.456;7.622;2023-12-20T00:57:09;7.00;99.90
15115;DHT22;7658;51.456;7.622;2023-12-20T00:59:35;6.90;99.90
15115;DHT22;7658;51.456;7.622;2023-12-20T01:02:01;6.90;99.90
15115;DHT22;7658;51.456;7.622;2023-12-20T01:04:27;6.90;99.90
15115;DHT22;7658;51.456;7.622;2023-12-20T01:06:53;6.90;99.90
15115;DHT22;7658;51.456;7.622;2023-12-20T01:09:19;6.80;99.90
15115;DHT22;7658;51.456;7.622;2023-12-20T01:11:45;6.80;99.90
15115;DHT22;7658;51.456;7.622;2023-12-20T01:14:14;6.80;99.90
15115;DHT22;7658;51.456;7.622;2023-12-20T01:16:40;6.80;99.90
15115;DHT22;7658;51.456;7.622;2023-12-20T01:19:05;6.80;99.90
15115;DHT22;7658;51.456;7.622;2023-12-20T01:21:32;6.70;99.90
15115;DHT22;7658;51.456;7.622;2023-12-20T01:23:58;6.70;99.90
15115;DHT22;7658;51.456;7.622;2023-12-20T01:26:23;6.60;99.90
15115;DHT22;7658;51.456;7.622;2023-12-20T01:28:49;6.50;99.90
15115;DHT22;7658;51.456;7.622;2023-12-20T01:31:15;6.50;99.90
15115;DHT22;7658;51.456;7.622;2023-12-20T01:33:41;6.40;99.90
15115;DHT22;7658;51.456;7.622;2023-12-20T01:36:06;6.40;99.90
15115;DHT22;7658;51.456;7.622;2023-12-20T01:38:32;6.40;99.90
15115;DHT22;7658;51.456;7.622;2023-12-20T01:40:58;6.40;99.90
15115;DHT22;7658;51.456;7.622;2023-12-20T01:43:24;6.40;99.90
15115;DHT22;7658;51.456;7.622;2023-12-20T01:45:50;6.30;99.90
15115;DHT22;7658;51.456;7.622;2023-12-20T01:48:17;6.30;99.90
15115;DHT22;7658;51.456;7.622;2023-12-20T01:50:44;6.30;99.90
15115;DHT22;7658;51.456;7.622;2023-12-20T01:53:12;6.30;99.90
15115;DHT22;7658;51.456;7.622;2023-12-20T01:55:40;6.30;99.90
15115;DHT22;7658;51.456;7.622;2023-12-20T01:58:09;6.30;99.90
15115;DHT22;7658;51.456;7.622;2023-12-20T02:00:37;6.30;99.90
15115;DHT22;7658;51.456;7.622;2023-12-20T02:03:03;6.30;99.90
15115;DHT22;7658;51.456;7.622;2023-12-20T02:05:33;6.30;99.90
15115;DHT22;7658;51.456;7.622;2023-12-20T02:07:59;6.40;99.90
15115;DHT22;7658;51.456;7.622;2023-12-20T02:10:26;6.30;99.90
15115;DHT22;7658;51.456;7.622;2023-12-20T02:12:52;6.30;99.90
15115;DHT22;7658;51.456;7.622;2023-12-20T02:15:18;6.40;99.90
15115;DHT22;7658;51.456;7.622;2023-12-20T02:17:44;6.40;99.90
15115;DHT22;7658;51.456;7.622;2023-12-20T02:20:11;6.40;99.90
15115;DHT22;7658;51.456;7.622;2023-12-20T02:22:36;6.40;99.90
15115;DHT22;7658;51.456;7.622;2023-12-20T02:25:02;6.40;99.90
15115;DHT22;7658;51.456;7.622;2023-12-20T02:27:29;6.40;99.90
15115;DHT22;7658;51.456;7.622;2023-12-20T02:29:55;6.30;99.90
15115;DHT22;7658;51.456;7.622;2023-12-20T02:32:21;6.30;99.90
15115;DHT22;7658;51.456;7.622;2023-12-20T02:34:48;6.30;99.90
15115;DHT22;7658;51.456;7.622;2023-12-20T02:37:14;6.40;99.90
15115;DHT22;7658;51.456;7.622;2023-12-20T02:39:40;6.30;99.90
15115;DHT22;7658;51.456;7.622;2023-12-20T02:42:06;6.30;99.90
15115;DHT22;7658;51.456;7.622;2023-12-20T02:44:32;6.30;99.90
15115;DHT22;7658;51.456;7.622;2023-12-20T02:46:57;6.20;99.90
15115;DHT22;7658;51.456;7.622;2023-12-20T02:49:23;6.20;99.90
15115;DHT22;7658;51.456;7.622;2023-12-20T02:51:49;6.20;99.90
15115;DHT22;7658;51.456;7.622;2023-12-20T02:54:15;6.10;99.90
15115;DHT22;7658;51.456;7.622;2023-12-20T02:56:40;6.10;99.90
15115;DHT22;7658;51.456;7.622;2023-12-20T02:59:06;6.10;99.90
15115;DHT22;7658;51.456;7.622;2023-12-20T03:01:34;6.10;99.90
15115;DHT22;7658;51.456;7.622;2023-12-20T03:04:00;6.10;99.90
15115;DHT22;7658;51.456;7.622;2023-12-20T03:06:26;6.10;99.90
15115;DHT22;7658;51.456;7.622;2023-12-20T03:08:52;6.10;99.90
15115;DHT22;7658;51.456;7.622;2023-12-20T03:11:18;6.10;99.90
15115;DHT22;7658;51.456;7.622;2023-12-20T03:13:44;6.00;99.90
15115;DHT22;7658;51.456;7.622;2023-12-20T03:16:11;6.10;99.90
15115;DHT22;7658;51.456;7.622;2023-12-20T03:18:36;6.10;99.90
15115;DHT22;7658;51.456;7.622;2023-12-20T03:21:03;6.10;99.90
15115;DHT22;7658;51.456;7.622;2023-12-20T03:23:29;6.10;99.90
15115;DHT22;7658;51.456;7.622;2023-12-20T03:25:56;6.10;99.90
15115;DHT22;7658;51.456;7.622;2023-12-20T03:28:22;6.20;99.90
15115;DHT22;7658;51.456;7.622;2023-12-20T03:30:51;6.10;99.90
15115;DHT22;7658;51.456;7.622;2023-12-20T03:33:16;6.10;99.90
15115;DHT22;7658;51.456;7.622;2023-12-20T03:35:42;6.20;99.90
15115;DHT22;7658;51.456;7.622;2023-12-20T03:38:08;6.10;99.90
15115;DHT22;7658;51.456;7.622;2023-12-20T03:40:35;6.10;99.90
15115;DHT22;7658;51.456;7.622;2023-12-20T03:43:00;6.20;99.90
15115;DHT22;7658;51.456;7.622;2023-12-20T03:45:26;6.20;99.90
15115;DHT22;7658;51.456;7.622;2023-12-20T03:47:52;6.10;99.90
15115;DHT22;7658;51.456;7.622;2023-12-20T03:50:25;6.10;99.90
15115;DHT22;7658;51.456;7.622;2023-12-20T03:52:51;6.10;99.90
15115;DHT22;7658;51.456;7.622;2023-12-20T03:55:17;6.10;99.90
15115;DHT22;7658;51.456;7.622;2023-12-20T03:57:43;6.10;99.90
15115;DHT22;7658;51.456;7.622;2023-12-20T04:00:09;6.10;99.90
15115;DHT22;7658;51.456;7.622;2023-12-20T04:02:39;6.10;99.90
15115;DHT22;7658;51.456;7.622;2023-12-20T04:05:06;6.00;99.90
15115;DHT22;7658;51.456;7.622;2023-12-20T04:07:32;6.00;99.90
15115;DHT22;7658;51.456;7.622;2023-12-20T04:09:58;6.00;99.90
15115;DHT22;7658;51.456;7.622;2023-12-20T04:12:24;6.10;99.90
15115;DHT22;7658;51.456;7.622;2023-12-20T04:14:50;6.10;99.90
15115;DHT22;7658;51.456;7.622;2023-12-20T04:17:16;6.10;99.90
15115;DHT22;7658;51.456;7.622;2023-12-20T04:19:42;6.10;99.90
15115;DHT22;7658;51.456;7.622;2023-12-20T04:22:08;6.10;99.90
15115;DHT22;7658;51.456;7.622;2023-12-20T04:24:35;6.00;99.90
15115;DHT22;7658;51.456;7.622;2023-12-20T04:27:01;6.00;99.90
15115;DHT22;7658;51.456;7.622;2023-12-20T04:29:27;5.90;99.90
15115;DHT22;7658;51.456;7.622;2023-12-20T04:31:53;6.00;99.90
15115;DHT22;7658;51.456;7.622;2023-12-20T04:34:19;5.90;99.90
15115;DHT22;7658;51.456;7.622;2023-12-20T04:36:45;5.90;99.90
15115;DHT22;7658;51.456;7.622;2023-12-20T04:39:12;5.90;99.90
15115;DHT22;7658;51.456;7.622;2023-12-20T04:41:38;5.80;99.90
15115;DHT22;7658;51.456;7.622;2023-12-20T04:44:05;5.90;99.90
15115;DHT22;7658;51.456;7.622;2023-12-20T04:46:32;5.90;99.90
15115;DHT22;7658;51.456;7.622;2023-12-20T04:48:57;5.90;99.90
15115;DHT22;7658;51.456;7.622;2023-12-20T04:51:23;5.90;99.90
15115;DHT22;7658;51.456;7.622;2023-12-20T04:53:49;5.90;99.90
15115;DHT22;7658;51.456;7.622;2023-12-20T04:56:15;5.90;99.90
15115;DHT22;7658;51.456;7.622;2023-12-20T04:58:42;5.90;99.90
15115;DHT22;7658;51.456;7.622;2023-12-20T05:01:09;5.90;99.90
15115;DHT22;7658;51.456;7.622;2023-12-20T05:03:35;5.90;99.90
15115;DHT22;7658;51.456;7.622;2023-12-20T05:06:01;5.90;99.90
15115;DHT22;7658;51.456;7.622;2023-12-20T05:08:27;5.90;99.90
15115;DHT22;7658;51.456;7.622;2023-12-20T05:10:54;6.00;99.90
15115;DHT22;7658;51.456;7.622;2023-12-20T05:13:20;5.90;99.90
15115;DHT22;7658;51.456;7.622;2023-12-20T05:15:46;5.90;99.90
15115;DHT22;7658;51.456;7.622;2023-12-20T05:18:12;5.90;99.90
15115;DHT22;7658;51.456;7.622;2023-12-20T05:20:38;5.90;99.90
15115;DHT22;7658;51.456;7.622;2023-12-20T05:23:05;6.00;99.90
15115;DHT22;7658;51.456;7.622;2023-12-20T05:25:31;6.00;99.90
15115;DHT22;7658;51.456;7.622;2023-12-20T05:27:56;6.00;99.90
15115;DHT22;7658;51.456;7.622;2023-12-20T05:30:22;6.00;99.90
15115;DHT22;7658;51.456;7.622;2023-12-20T05:32:48;6.00;99.90
15115;DHT22;7658;51.456;7.622;2023-12-20T05:35:15;6.00;99.90
15115;DHT22;7658;51.456;7.622;2023-12-20T05:37:41;6.00;99.90
15115;DHT22;7658;51.456;7.622;2023-12-20T05:40:07;6.00;99.90
15115;DHT22;7658;51.456;7.622;2023-12-20T05:42:37;5.90;99.90
15115;DHT22;7658;51.456;7.622;2023-12-20T05:45:06;5.90;99.90
15115;DHT22;7658;51.456;7.622;2023-12-20T05:47:32;5.90;99.90
15115;DHT22;7658;51.456;7.622;2023-12-20T05:49:58;5.90;99.90
15115;DHT22;7658;51.456;7.622;2023-12-20T05:52:24;5.90;99.90
15115;DHT22;7658;51.456;7.622;2023-12-20T05:54:49;5.90;99.90
15115;DHT22;7658;51.456;7.622;2023-12-20T05:57:15;5.90;99.90
15115;DHT22;7658;51.456;7.622;2023-12-20T05:59:41;5.90;99.90
15115;DHT22;7658;51.456;7.622;2023-12-20T06:02:07;5.90;99.90
15115;DHT22;7658;51.456;7.622;2023-12-20T06:04:33;5.90;99.90
15115;DHT22;7658;51.456;7.622;2023-12-20T06:06:59;5.90;99.90
15115;DHT22;7658;51.456;7.622;2023-12-20T06:09:26;5.90;99.90
15115;DHT22;7658;51.456;7.622;2023-12-20T06:11:52;5.90;99.90
15115;DHT22;7658;51.456;7.622;2023-12-20T06:14:18;5.80;99.90
15115;DHT22;7658;51.456;7.622;2023-12-20T06:16:45;5.80;99.90
15115;DHT22;7658;51.456;7.622;2023-12-20T06:19:11;5.80;99.90
15115;DHT22;7658;51.456;7.622;2023-12-20T06:21:37;5.80;99.90
15115;DHT22;7658;51.456;7.622;2023-12-20T06:24:03;5.80;99.90
15115;DHT22;7658;51.456;7.622;2023-12-20T06:26:28;5.80;99.90
15115;DHT22;7658;51.456;7.622;2023-12-20T06:28:54;5.80;99.90
15115;DHT22;7658;51.456;7.622;2023-12-20T06:31:21;5.80;99.90
15115;DHT22;7658;51.456;7.622;2023-12-20T06:33:46;5.80;99.90
15115;DHT22;7658;51.456;7.622;2023-12-20T06:36:13;5.80;99.90
15115;DHT22;7658;51.456;7.622;2023-12-20T06:38:39;5.80;99.90
15115;DHT22;7658;51.456;7.622;2023-12-20T06:41:05;5.90;99.90
15115;DHT22;7658;51.456;7.622;2023-12-20T06:43:31;5.90;99.90
15115;DHT22;7658;51.456;7.622;2023-12-20T06:45:58;6.00;99.90
15115;DHT22;7658;51.456;7.622;2023-12-20T06:48:24;5.90;99.90
15115;DHT22;7658;51.456;7.622;2023-12-20T06:50:50;5.90;99.90
15115;DHT22;7658;51.456;7.622;2023-12-20T06:53:15;5.90;99.90
15115;DHT22;7658;51.456;7.622;2023-12-20T06:55:42;5.90;99.90
15115;DHT22;7658;51.456;7.622;2023-12-20T06:58:07;5.90;99.90
15115;DHT22;7658;51.456;7.622;2023-12-20T07:00:34;5.90;99.90
15115;DHT22;7658;51.456;7.622;2023-12-20T07:03:00;5.90;99.90
15115;DHT22;7658;51.456;7.622;2023-12-20T07:05:26;5.90;99.90
15115;DHT22;7658;51.456;7.622;2023-12-20T07:07:52;5.90;99.90
15115;DHT22;7658;51.456;7.622;2023-12-20T07:10:18;5.90;99.90
15115;DHT22;7658;51.456;7.622;2023-12-20T07:12:43;6.00;99.90
15115;DHT22;7658;51.456;7.622;2023-12-20T07:15:10;6.00;99.90
15115;DHT22;7658;51.456;7.622;2023-12-20T07:17:36;6.00;99.90
15115;DHT22;7658;51.456;7.622;2023-12-20T07:20:02;6.00;99.90
15115;DHT22;7658;51.456;7.622;2023-12-20T07:22:32;6.00;99.90
15115;DHT22;7658;51.456;7.622;2023-12-20T07:24:59;6.00;99.90
15115;DHT22;7658;51.456;7.622;2023-12-20T07:27:25;6.00;99.90
15115;DHT22;7658;51.456;7.622;2023-12-20T07:29:51;6.00;99.90
15115;DHT22;7658;51.456;7.622;2023-12-20T07:32:17;6.00;99.90
15115;DHT22;7658;51.456;7.622;2023-12-20T07:34:43;6.00;99.90
15115;DHT22;7658;51.456;7.622;2023-12-20T07:37:09;6.00;99.90
15115;DHT22;7658;51.456;7.622;2023-12-20T07:39:38;6.10;99.90
15115;DHT22;7658;51.456;7.622;2023-12-20T07:42:05;6.10;99.90
15115;DHT22;7658;51.456;7.622;2023-12-20T07:44:31;6.10;99.90
15115;DHT22;7658;51.456;7.622;2023-12-20T07:46:57;6.10;99.90
15115;DHT22;7658;51.456;7.622;2023-12-20T07:49:23;6.10;99.90
15115;DHT22;7658;51.456;7.622;2023-12-20T07:51:49;6.10;99.90
15115;DHT22;7658;51.456;7.622;2023-12-20T07:54:15;6.10;99.90
15115;DHT22;7658;51.456;7.622;2023-12-20T07:56:41;6.10;99.90
15115;DHT22;7658;51.456;7.622;2023-12-20T07:59:07;6.10;99.90
15115;DHT22;7658;51.456;7.622;2023-12-20T08:01:33;6.10;99.90
15115;DHT22;7658;51.456;7.622;2023-12-20T08:03:59;6.10;99.90
15115;DHT22;7658;51.456;7.622;2023-12-20T08:06:25;6.10;99.90
15115;DHT22;7658;51.456;7.622;2023-12-20T08:08:51;6.10;99.90
15115;DHT22;7658;51.456;7.622;2023-12-20T08:11:16;6.10;99.90
15115;DHT22;7658;51.456;7.622;2023-12-20T08:13:43;6.10;99.90
15115;DHT22;7658;51.456;7.622;2023-12-20T08:16:08;6.10;99.90
15115;DHT22;7658;51.456;7.622;2023-12-20T08:18:34;6.10;99.90
15115;DHT22;7658;51.456;7.622;2023-12-20T08:21:00;6.10;99.90
15115;DHT22;7658;51.456;7.622;2023-12-20T08:23:27;6.10;99.90
15115;DHT22;7658;51.456;7.622;2023-12-20T08:25:53;6.10;99.90
15115;DHT22;7658;51.456;7.622;2023-12-20T08:28:19;6.10;99.90
15115;DHT22;7658;51.456;7.622;2023-12-20T08:30:44;6.10;99.90
15115;DHT22;7658;51.456;7.622;2023-12-20T08:33:10;6.20;99.90
15115;DHT22;7658;51.456;7.622;2023-12-20T08:35:39;6.20;99.90
15115;DHT22;7658;51.456;7.622;2023-12-20T08:38:05;6.20;99.90
15115;DHT22;7658;51.456;7.622;2023-12-20T08:40:31;6.20;99.90
15115;DHT22;7658;51.456;7.622;2023-12-20T08:42:57;6.20;99.90
15115;DHT22;7658;51.456;7.622;2023-12-20T08:45:23;6.20;99.90
15115;DHT22;7658;51.456;7.622;2023-12-20T08:47:50;6.20;99.90
15115;DHT22;7658;51.456;7.622;2023-12-20T08:50:16;6.20;99.90
15115;DHT22;7658;51.456;7.622;2023-12-20T08:52:42;6.30;99.90
15115;DHT22;7658;51.456;7.622;2023-12-20T08:55:08;6.30;99.90
15115;DHT22;7658;51.456;7.622;2023-12-20T08:57:36;6.30;99.90
15115;DHT22;7658;51.456;7.622;2023-12-20T09:00:02;6.40;99.90
15115;DHT22;7658;51.456;7.622;2023-12-20T09:02:28;6.40;99.90
15115;DHT22;7658;51.456;7.622;2023-12-20T09:04:54;6.40;99.90
15115;DHT22;7658;51.456;7.622;2023-12-20T09:07:25;6.30;99.90
15115;DHT22;7658;51.456;7.622;2023-12-20T09:09:52;6.40;99.90
15115;DHT22;7658;51.456;7.622;2023-12-20T09:12:21;6.40;99.90
15115;DHT22;7658;51.456;7.622;2023-12-20T09:14:48;6.40;99.90
15115;DHT22;7658;51.456;7.622;2023-12-20T09:17:13;6.40;99.90
15115;DHT22;7658;51.456;7.622;2023-12-20T09:19:39;6.40;99.90
15115;DHT22;7658;51.456;7.622;2023-12-20T09:22:06;6.40;99.90
15115;DHT22;7658;51.456;7.622;2023-12-20T09:24:32;6.40;99.90
15115;DHT22;7658;51.456;7.622;2023-12-20T09:26:57;6.40;99.90
15115;DHT22;7658;51.456;7.622;2023-12-20T09:29:23;6.40;99.90
15115;DHT22;7658;51.456;7.622;2023-12-20T09:31:50;6.40;99.90
15115;DHT22;7658;51.456;7.622;2023-12-20T09:34:16;6.40;99.90
15115;DHT22;7658;51.456;7.622;2023-12-20T09:36:44;6.50;99.90
15115;DHT22;7658;51.456;7.622;2023-12-20T09:39:16;6.50;99.90
15115;DHT22;7658;51.456;7.622;2023-12-20T09:42:00;6.50;99.90
15115;DHT22;7658;51.456;7.622;2023-12-20T09:44:28;6.50;99.90
15115;DHT22;7658;51.456;7.622;2023-12-20T09:46:55;6.50;99.90
15115;DHT22;7658;51.456;7.622;2023-12-20T09:49:21;6.50;99.90
15115;DHT22;7658;51.456;7.622;2023-12-20T09:51:50;6.50;99.90
15115;DHT22;7658;51.456;7.622;2023-12-20T09:54:20;6.50;99.90
15115;DHT22;7658;51.456;7.622;2023-12-20T09:56:47;6.50;99.90
15115;DHT22;7658;51.456;7.622;2023-12-20T09:59:13;6.50;99.90
15115;DHT22;7658;51.456;7.622;2023-12-20T10:01:41;6.50;99.90
15115;DHT22;7658;51.456;7.622;2023-12-20T10:04:09;6.50;99.90
15115;DHT22;7658;51.456;7.622;2023-12-20T10:06:44;6.60;99.90
15115;DHT22;7658;51.456;7.622;2023-12-20T10:09:11;6.60;99.90
15115;DHT22;7658;51.456;7.622;2023-12-20T10:11:39;6.50;99.90
15115;DHT22;7658;51.456;7.622;2023-12-20T10:14:06;6.60;99.90
15115;DHT22;7658;51.456;7.622;2023-12-20T10:16:33;6.60;99.90
15115;DHT22;7658;51.456;7.622;2023-12-20T10:19:00;6.60;99.90
15115;DHT22;7658;51.456;7.622;2023-12-20T10:21:30;6.60;99.90
15115;DHT22;7658;51.456;7.622;2023-12-20T10:23:57;6.60;99.90
15115;DHT22;7658;51.456;7.622;2023-12-20T10:26:24;6.60;99.90
15115;DHT22;7658;51.456;7.622;2023-12-20T10:29:00;6.60;99.90
15115;DHT22;7658;51.456;7.622;2023-12-20T10:31:30;6.60;99.90
15115;DHT22;7658;51.456;7.622;2023-12-20T10:33:57;6.60;99.90
15115;DHT22;7658;51.456;7.622;2023-12-20T10:36:26;6.70;99.90
15115;DHT22;7658;51.456;7.622;2023-12-20T10:38:55;6.60;99.90
15115;DHT22;7658;51.456;7.622;2023-12-20T10:41:32;6.70;99.90
15115;DHT22;7658;51.456;7.622;2023-12-20T10:44:03;6.70;99.90
15115;DHT22;7658;51.456;7.622;2023-12-20T10:46:30;6.60;99.90
15115;DHT22;7658;51.456;7.622;2023-12-20T10:48:58;6.70;99.90
15115;DHT22;7658;51.456;7.622;2023-12-20T10:51:25;6.70;99.90
15115;DHT22;7658;51.456;7.622;2023-12-20T10:53:56;6.70;99.90
15115;DHT22;7658;51.456;7.622;2023-12-20T10:56:22;6.70;99.90
15115;DHT22;7658;51.456;7.622;2023-12-20T10:58:49;6.60;99.90
15115;DHT22;7658;51.456;7.622;2023-12-20T11:01:19;6.60;99.90
15115;DHT22;7658;51.456;7.622;2023-12-20T11:03:50;6.60;99.90
15115;DHT22;7658;51.456;7.622;2023-12-20T11:09:29;6.60;99.90
15115;DHT22;7658;51.456;7.622;2023-12-20T11:12:00;6.60;99.90
15115;DHT22;7658;51.456;7.622;2023-12-20T11:14:37;6.60;99.90
15115;DHT22;7658;51.456;7.622;2023-12-20T11:17:09;6.70;99.90
15115;DHT22;7658;51.456;7.622;2023-12-20T11:22:25;6.70;99.90
15115;DHT22;7658;51.456;7.622;2023-12-20T11:24:52;6.70;99.90
15115;DHT22;7658;51.456;7.622;2023-12-20T11:27:21;6.60;99.90
15115;DHT22;7658;51.456;7.622;2023-12-20T11:29:57;6.70;99.90
15115;DHT22;7658;51.456;7.622;2023-12-20T11:34:54;6.70;99.90
15115;DHT22;7658;51.456;7.622;2023-12-20T11:37:20;6.70;99.90
15115;DHT22;7658;51.456;7.622;2023-12-20T11:39:55;6.60;99.90
15115;DHT22;7658;51.456;7.622;2023-12-20T11:42:22;6.60;99.90
15115;DHT22;7658;51.456;7.622;2023-12-20T11:44:47;6.60;99.90
15115;DHT22;7658;51.456;7.622;2023-12-20T11:47:13;6.60;99.90
15115;DHT22;7658;51.456;7.622;2023-12-20T11:49:41;6.70;99.90
15115;DHT22;7658;51.456;7.622;2023-12-20T11:52:07;6.70;99.90
15115;DHT22;7658;51.456;7.622;2023-12-20T11:54:32;6.70;99.90
15115;DHT22;7658;51.456;7.622;2023-12-20T11:56:58;6.60;99.90
15115;DHT22;7658;51.456;7.622;2023-12-20T11:59:24;6.70;99.90
15115;DHT22;7658;51.456;7.622;2023-12-20T12:01:51;6.80;99.90
15115;DHT22;7658;51.456;7.622;2023-12-20T12:04:16;6.80;99.90
15115;DHT22;7658;51.456;7.622;2023-12-20T12:06:45;6.80;99.90
15115;DHT22;7658;51.456;7.622;2023-12-20T12:09:11;6.80;99.90
15115;DHT22;7658;51.456;7.622;2023-12-20T12:11:37;6.80;99.90
15115;DHT22;7658;51.456;7.622;2023-12-20T12:14:03;6.80;99.90
15115;DHT22;7658;51.456;7.622;2023-12-20T12:16:29;6.70;99.90
15115;DHT22;7658;51.456;7.622;2023-12-20T12:18:58;6.70;99.90
15115;DHT22;7658;51.456;7.622;2023-12-20T12:21:25;6.70;99.90
15115;DHT22;7658;51.456;7.622;2023-12-20T12:23:51;6.70;99.90
15115;DHT22;7658;51.456;7.622;2023-12-20T12:26:17;6.70;99.90
15115;DHT22;7658;51.456;7.622;2023-12-20T12:28:43;6.70;99.90
15115;DHT22;7658;51.456;7.622;2023-12-20T12:31:15;6.70;99.90
15115;DHT22;7658;51.456;7.622;2023-12-20T12:33:43;6.70;99.90
15115;DHT22;7658;51.456;7.622;2023-12-20T12:36:10;6.70;99.90
15115;DHT22;7658;51.456;7.622;2023-12-20T12:38:37;6.60;99.90
15115;DHT22;7658;51.456;7.622;2023-12-20T12:41:02;6.70;99.90
15115;DHT22;7658;51.456;7.622;2023-12-20T12:43:28;6.70;99.90
15115;DHT22;7658;51.456;7.622;2023-12-20T12:45:54;6.60;99.90
15115;DHT22;7658;51.456;7.622;2023-12-20T12:48:20;6.60;99.90
15115;DHT22;7658;51.456;7.622;2023-12-20T12:50:46;6.50;99.90
15115;DHT22;7658;51.456;7.622;2023-12-20T12:53:12;6.50;99.90
15115;DHT22;7658;51.456;7.622;2023-12-20T12:55:38;6.50;99.90
15115;DHT22;7658;51.456;7.622;2023-12-20T12:58:04;6.50;99.90
15115;DHT22;7658;51.456;7.622;2023-12-20T13:00:30;6.50;99.90
15115;DHT22;7658;51.456;7.622;2023-12-20T13:02:56;6.50;99.90
15115;DHT22;7658;51.456;7.622;2023-12-20T13:05:21;6.60;99.90
15115;DHT22;7658;51.456;7.622;2023-12-20T13:07:47;6.60;99.90
15115;DHT22;7658;51.456;7.622;2023-12-20T13:10:13;6.60;99.90
15115;DHT22;7658;51.456;7.622;2023-12-20T13:12:42;6.60;99.90
15115;DHT22;7658;51.456;7.622;2023-12-20T13:15:08;6.70;99.90
15115;DHT22;7658;51.456;7.622;2023-12-20T13:17:34;6.70;99.90
15115;DHT22;7658;51.456;7.622;2023-12-20T13:20:00;6.70;99.90
15115;DHT22;7658;51.456;7.622;2023-12-20T13:22:26;6.70;99.90
15115;DHT22;7658;51.456;7.622;2023-12-20T13:24:52;6.80;99.90
15115;DHT22;7658;51.456;7.622;2023-12-20T13:27:17;6.80;99.90
15115;DHT22;7658;51.456;7.622;2023-12-20T13:29:43;6.80;99.90
15115;DHT22;7658;51.456;7.622;2023-12-20T13:32:09;6.90;99.90
15115;DHT22;7658;51.456;7.622;2023-12-20T13:34:35;6.90;99.90
15115;DHT22;7658;51.456;7.622;2023-12-20T13:37:01;6.90;99.90
15115;DHT22;7658;51.456;7.622;2023-12-20T13:39:27;6.90;99.90
15115;DHT22;7658;51.456;7.622;2023-12-20T13:41:52;6.90;99.90
15115;DHT22;7658;51.456;7.622;2023-12-20T13:44:18;6.90;99.90
15115;DHT22;7658;51.456;7.622;2023-12-20T13:46:44;6.90;99.90
15115;DHT22;7658;51.456;7.622;2023-12-20T13:49:11;6.90;99.90
15115;DHT22;7658;51.456;7.622;2023-12-20T13:51:37;6.90;99.90
15115;DHT22;7658;51.456;7.622;2023-12-20T13:54:04;6.90;99.90
15115;DHT22;7658;51.456;7.622;2023-12-20T13:56:29;6.90;99.90
15115;DHT22;7658;51.456;7.622;2023-12-20T13:58:55;6.90;99.90
15115;DHT22;7658;51.456;7.622;2023-12-20T14:01:22;6.80;99.90
15115;DHT22;7658;51.456;7.622;2023-12-20T14:03:48;6.80;99.90
15115;DHT22;7658;51.456;7.622;2023-12-20T14:06:14;6.80;99.90
15115;DHT22;7658;51.456;7.622;2023-12-20T14:08:40;6.80;99.90
15115;DHT22;7658;51.456;7.622;2023-12-20T14:11:07;6.80;99.90
15115;DHT22;7658;51.456;7.622;2023-12-20T14:13:33;6.80;99.90
15115;DHT22;7658;51.456;7.622;2023-12-20T14:15:58;6.70;99.90
15115;DHT22;7658;51.456;7.622;2023-12-20T14:18:26;6.70;99.90
15115;DHT22;7658;51.456;7.622;2023-12-20T14:20:51;6.70;99.90
15115;DHT22;7658;51.456;7.622;2023-12-20T14:23:18;6.70;99.90
15115;DHT22;7658;51.456;7.622;2023-12-20T14:25:44;6.60;99.90
15115;DHT22;7658;51.456;7.622;2023-12-20T14:28:09;6.60;99.90
15115;DHT22;7658;51.456;7.622;2023-12-20T14:30:37;6.60;99.90
15115;DHT22;7658;51.456;7.622;2023-12-20T14:33:04;6.60;99.90
15115;DHT22;7658;51.456;7.622;2023-12-20T14:35:30;6.60;99.90
15115;DHT22;7658;51.456;7.622;2023-12-20T14:37:55;6.60;99.90
15115;DHT22;7658;51.456;7.622;2023-12-20T14:40:22;6.70;99.90
15115;DHT22;7658;51.456;7.622;2023-12-20T14:42:47;6.70;99.90
15115;DHT22;7658;51.456;7.622;2023-12-20T14:45:14;6.70;99.90
15115;DHT22;7658;51.456;7.622;2023-12-20T14:47:42;6.70;99.90
15115;DHT22;7658;51.456;7.622;2023-12-20T14:50:08;6.70;99.90
15115;DHT22;7658;51.456;7.622;2023-12-20T14:52:34;6.70;99.90
15115;DHT22;7658;51.456;7.622;2023-12-20T14:55:01;6.80;99.90
15115;DHT22;7658;51.456;7.622;2023-12-20T14:57:28;6.70;99.90
15115;DHT22;7658;51.456;7.622;2023-12-20T14:59:55;6.70;99.90
15115;DHT22;7658;51.456;7.622;2023-12-20T15:02:21;6.80;99.90
15115;DHT22;7658;51.456;7.622;2023-12-20T15:04:46;6.80;99.90
15115;DHT22;7658;51.456;7.622;2023-12-20T15:07:12;6.80;99.90
15115;DHT22;7658;51.456;7.622;2023-12-20T15:09:38;6.90;99.90
15115;DHT22;7658;51.456;7.622;2023-12-20T15:12:04;6.90;99.90
15115;DHT22;7658;51.456;7.622;2023-12-20T15:14:30;6.90;99.90
15115;DHT22;7658;51.456;7.622;2023-12-20T15:16:56;6.80;99.90
15115;DHT22;7658;51.456;7.622;2023-12-20T15:19:22;6.80;99.90
15115;DHT22;7658;51.456;7.622;2023-12-20T15:21:48;6.80;99.90
15115;DHT22;7658;51.456;7.622;2023-12-20T15:24:15;6.80;99.90
15115;DHT22;7658;51.456;7.622;2023-12-20T15:26:46;6.80;99.90
15115;DHT22;7658;51.456;7.622;2023-12-20T15:29:12;6.80;99.90
15115;DHT22;7658;51.456;7.622;2023-12-20T15:31:48;6.90;99.90
15115;DHT22;7658;51.456;7.622;2023-12-20T15:34:14;6.90;99.90
15115;DHT22;7658;51.456;7.622;2023-12-20T15:36:41;6.90;99.90
15115;DHT22;7658;51.456;7.622;2023-12-20T15:39:08;7.00;99.90
15115;DHT22;7658;51.456;7.622;2023-12-20T15:41:34;6.90;99.90
15115;DHT22;7658;51.456;7.622;2023-12-20T15:44:00;7.00;99.90
15115;DHT22;7658;51.456;7.622;2023-12-20T15:46:26;7.00;99.90
15115;DHT22;7658;51.456;7.622;2023-12-20T15:48:51;7.00;99.90
15115;DHT22;7658;51.456;7.622;2023-12-20T15:51:21;7.00;99.90
15115;DHT22;7658;51.456;7.622;2023-12-20T15:53:47;7.00;99.90
15115;DHT22;7658;51.456;7.622;2023-12-20T15:56:12;7.00;99.90
15115;DHT22;7658;51.456;7.622;2023-12-20T15:58:38;7.00;99.90
15115;DHT22;7658;51.456;7.622;2023-12-20T16:01:04;7.00;99.90
15115;DHT22;7658;51.456;7.622;2023-12-20T16:03:30;7.00;99.90
15115;DHT22;7658;51.456;7.622;2023-12-20T16:05:56;7.00;99.90